sensor_id;sensor_type;location;lat;lon;timestamp;P1;durP1;ratioP1;P2;durP2;ratioP2
73276;SDS011;61501;43.316;5.372;2022-09-09T00:00:22;5.88;;;1.67;;
73276;SDS011;61501;43.316;5.372;2022-09-09T00:05:28;4.22;;;1.50;;
73276;SDS011;61501;43.316;5.372;2022-09-09T00:07:56;7.18;;;1.60;;
73276;SDS011;61501;43.316;5.372;2022-09-09T00:10:37;3.42;;;1.40;;
73276;SDS011;61501;43.316;5.372;2022-09-09T00:13:22;4.32;;;1.20;;
73276;SDS011;61501;43.316;5.372;2022-09-09T00:18:38;2.08;;;1.17;;
73276;SDS011;61501;43.316;5.372;2022-09-09T00:21:06;5.13;;;1.50;;
73276;SDS011;61501;43.316;5.372;2022-09-09T00:26:02;3.13;;;1.70;;
73276;SDS011;61501;43.316;5.372;2022-09-09T00:28:31;5.22;;;1.65;;
73276;SDS011;61501;43.316;5.372;2022-09-09T00:30:59;5.50;;;1.80;;
73276;SDS011;61501;43.316;5.372;2022-09-09T00:33:30;4.85;;;1.30;;
73276;SDS011;61501;43.316;5.372;2022-09-09T00:35:57;3.47;;;1.45;;
73276;SDS011;61501;43.316;5.372;2022-09-09T00:38:28;3.95;;;1.30;;
73276;SDS011;61501;43.316;5.372;2022-09-09T00:41:05;4.57;;;1.67;;
73276;SDS011;61501;43.316;5.372;2022-09-09T00:43:36;5.38;;;1.60;;
73276;SDS011;61501;43.316;5.372;2022-09-09T00:46:10;2.10;;;1.40;;
73276;SDS011;61501;43.316;5.372;2022-09-09T00:56:20;4.20;;;1.30;;
73276;SDS011;61501;43.316;5.372;2022-09-09T01:01:53;3.63;;;1.55;;
73276;SDS011;61501;43.316;5.372;2022-09-09T01:04:23;5.97;;;1.75;;
73276;SDS011;61501;43.316;5.372;2022-09-09T01:06:53;3.83;;;1.58;;
73276;SDS011;61501;43.316;5.372;2022-09-09T01:16:54;4.18;;;1.50;;
73276;SDS011;61501;43.316;5.372;2022-09-09T01:19:34;2.72;;;1.60;;
73276;SDS011;61501;43.316;5.372;2022-09-09T01:22:08;4.72;;;2.00;;
73276;SDS011;61501;43.316;5.372;2022-09-09T01:24:41;4.50;;;1.43;;
73276;SDS011;61501;43.316;5.372;2022-09-09T01:27:08;4.60;;;1.42;;
73276;SDS011;61501;43.316;5.372;2022-09-09T01:29:35;4.28;;;1.70;;
73276;SDS011;61501;43.316;5.372;2022-09-09T01:34:46;5.25;;;2.03;;
73276;SDS011;61501;43.316;5.372;2022-09-09T01:37:12;4.28;;;1.80;;
73276;SDS011;61501;43.316;5.372;2022-09-09T01:39:39;7.85;;;1.85;;
73276;SDS011;61501;43.316;5.372;2022-09-09T01:42:07;3.13;;;1.45;;
73276;SDS011;61501;43.316;5.372;2022-09-09T01:44:34;3.97;;;1.52;;
73276;SDS011;61501;43.316;5.372;2022-09-09T01:47:02;3.33;;;1.48;;
73276;SDS011;61501;43.316;5.372;2022-09-09T01:49:28;2.63;;;1.40;;
73276;SDS011;61501;43.316;5.372;2022-09-09T01:51:55;5.63;;;2.05;;
73276;SDS011;61501;43.316;5.372;2022-09-09T01:54:22;3.67;;;1.90;;
73276;SDS011;61501;43.316;5.372;2022-09-09T01:57:35;5.85;;;1.60;;
73276;SDS011;61501;43.316;5.372;2022-09-09T02:00:00;4.18;;;1.48;;
73276;SDS011;61501;43.316;5.372;2022-09-09T02:02:26;3.92;;;1.70;;
73276;SDS011;61501;43.316;5.372;2022-09-09T02:05:14;3.97;;;1.17;;
73276;SDS011;61501;43.316;5.372;2022-09-09T02:07:43;3.70;;;1.40;;
73276;SDS011;61501;43.316;5.372;2022-09-09T02:12:43;2.35;;;1.30;;
73276;SDS011;61501;43.316;5.372;2022-09-09T02:15:17;3.53;;;1.30;;
73276;SDS011;61501;43.316;5.372;2022-09-09T02:17:46;4.43;;;1.52;;
73276;SDS011;61501;43.316;5.372;2022-09-09T02:20:13;2.35;;;1.40;;
73276;SDS011;61501;43.316;5.372;2022-09-09T02:22:39;4.50;;;1.65;;
73276;SDS011;61501;43.316;5.372;2022-09-09T02:25:07;2.75;;;1.50;;
73276;SDS011;61501;43.316;5.372;2022-09-09T02:27:34;5.07;;;1.48;;
73276;SDS011;61501;43.316;5.372;2022-09-09T02:30:00;3.67;;;1.60;;
73276;SDS011;61501;43.316;5.372;2022-09-09T02:32:27;2.53;;;1.33;;
73276;SDS011;61501;43.316;5.372;2022-09-09T02:35:00;5.38;;;1.65;;
73276;SDS011;61501;43.316;5.372;2022-09-09T02:37:29;3.35;;;1.45;;
73276;SDS011;61501;43.316;5.372;2022-09-09T02:39:58;5.10;;;1.60;;
73276;SDS011;61501;43.316;5.372;2022-09-09T02:42:24;6.00;;;1.90;;
73276;SDS011;61501;43.316;5.372;2022-09-09T02:44:53;3.33;;;1.50;;
73276;SDS011;61501;43.316;5.372;2022-09-09T02:47:23;2.88;;;1.40;;
73276;SDS011;61501;43.316;5.372;2022-09-09T02:52:20;5.40;;;1.83;;
73276;SDS011;61501;43.316;5.372;2022-09-09T02:54:48;4.57;;;1.75;;
73276;SDS011;61501;43.316;5.372;2022-09-09T02:57:20;2.70;;;1.35;;
73276;SDS011;61501;43.316;5.372;2022-09-09T02:59:48;4.18;;;1.67;;
73276;SDS011;61501;43.316;5.372;2022-09-09T03:02:14;3.10;;;1.40;;
73276;SDS011;61501;43.316;5.372;2022-09-09T03:04:40;3.70;;;1.50;;
73276;SDS011;61501;43.316;5.372;2022-09-09T03:07:09;3.90;;;1.67;;
73276;SDS011;61501;43.316;5.372;2022-09-09T03:09:35;6.05;;;1.60;;
73276;SDS011;61501;43.316;5.372;2022-09-09T03:12:01;4.72;;;1.80;;
73276;SDS011;61501;43.316;5.372;2022-09-09T03:14:29;4.75;;;1.83;;
73276;SDS011;61501;43.316;5.372;2022-09-09T03:16:55;3.42;;;1.50;;
73276;SDS011;61501;43.316;5.372;2022-09-09T03:19:23;4.13;;;1.27;;
73276;SDS011;61501;43.316;5.372;2022-09-09T03:21:49;4.60;;;1.33;;
73276;SDS011;61501;43.316;5.372;2022-09-09T03:24:16;5.57;;;1.38;;
73276;SDS011;61501;43.316;5.372;2022-09-09T03:26:42;3.38;;;1.45;;
73276;SDS011;61501;43.316;5.372;2022-09-09T03:29:09;3.40;;;1.30;;
73276;SDS011;61501;43.316;5.372;2022-09-09T03:31:37;4.30;;;1.35;;
73276;SDS011;61501;43.316;5.372;2022-09-09T03:34:03;4.03;;;1.58;;
73276;SDS011;61501;43.316;5.372;2022-09-09T03:36:30;4.25;;;1.58;;
73276;SDS011;61501;43.316;5.372;2022-09-09T03:38:56;3.47;;;1.40;;
73276;SDS011;61501;43.316;5.372;2022-09-09T03:41:23;2.83;;;1.50;;
73276;SDS011;61501;43.316;5.372;2022-09-09T03:43:52;4.45;;;1.52;;
73276;SDS011;61501;43.316;5.372;2022-09-09T03:46:22;2.50;;;1.50;;
73276;SDS011;61501;43.316;5.372;2022-09-09T03:48:48;6.40;;;1.85;;
73276;SDS011;61501;43.316;5.372;2022-09-09T03:51:15;4.30;;;1.23;;
73276;SDS011;61501;43.316;5.372;2022-09-09T03:53:42;4.03;;;1.25;;
73276;SDS011;61501;43.316;5.372;2022-09-09T03:56:08;5.85;;;1.40;;
73276;SDS011;61501;43.316;5.372;2022-09-09T03:58:34;2.92;;;1.17;;
73276;SDS011;61501;43.316;5.372;2022-09-09T04:01:02;3.20;;;1.00;;
73276;SDS011;61501;43.316;5.372;2022-09-09T04:03:29;5.13;;;1.33;;
73276;SDS011;61501;43.316;5.372;2022-09-09T04:05:56;3.35;;;1.40;;
73276;SDS011;61501;43.316;5.372;2022-09-09T04:08:23;4.85;;;1.10;;
73276;SDS011;61501;43.316;5.372;2022-09-09T04:10:52;4.07;;;1.35;;
73276;SDS011;61501;43.316;5.372;2022-09-09T04:13:20;3.00;;;1.30;;
73276;SDS011;61501;43.316;5.372;2022-09-09T04:15:53;4.95;;;1.23;;
73276;SDS011;61501;43.316;5.372;2022-09-09T04:18:19;2.80;;;1.25;;
73276;SDS011;61501;43.316;5.372;2022-09-09T04:20:46;2.58;;;1.25;;
73276;SDS011;61501;43.316;5.372;2022-09-09T04:23:13;5.03;;;1.58;;
73276;SDS011;61501;43.316;5.372;2022-09-09T04:25:43;4.20;;;1.35;;
73276;SDS011;61501;43.316;5.372;2022-09-09T04:28:09;4.47;;;1.60;;
73276;SDS011;61501;43.316;5.372;2022-09-09T04:30:36;2.53;;;1.40;;
73276;SDS011;61501;43.316;5.372;2022-09-09T04:33:04;5.05;;;1.10;;
73276;SDS011;61501;43.316;5.372;2022-09-09T04:35:31;5.70;;;1.75;;
73276;SDS011;61501;43.316;5.372;2022-09-09T04:37:57;4.72;;;1.63;;
73276;SDS011;61501;43.316;5.372;2022-09-09T04:40:24;7.32;;;1.90;;
73276;SDS011;61501;43.316;5.372;2022-09-09T04:42:50;8.00;;;2.10;;
73276;SDS011;61501;43.316;5.372;2022-09-09T04:45:16;7.30;;;1.88;;
73276;SDS011;61501;43.316;5.372;2022-09-09T04:47:43;9.55;;;2.03;;
73276;SDS011;61501;43.316;5.372;2022-09-09T04:50:09;7.38;;;1.52;;
73276;SDS011;61501;43.316;5.372;2022-09-09T04:52:35;6.13;;;1.90;;
73276;SDS011;61501;43.316;5.372;2022-09-09T04:55:02;6.90;;;1.95;;
73276;SDS011;61501;43.316;5.372;2022-09-09T04:57:28;6.95;;;2.20;;
73276;SDS011;61501;43.316;5.372;2022-09-09T04:59:58;8.45;;;2.33;;
73276;SDS011;61501;43.316;5.372;2022-09-09T05:02:25;7.03;;;1.88;;
73276;SDS011;61501;43.316;5.372;2022-09-09T05:04:51;9.10;;;2.10;;
73276;SDS011;61501;43.316;5.372;2022-09-09T05:07:17;6.40;;;1.95;;
73276;SDS011;61501;43.316;5.372;2022-09-09T05:09:44;8.43;;;2.08;;
73276;SDS011;61501;43.316;5.372;2022-09-09T05:12:10;10.63;;;2.25;;
73276;SDS011;61501;43.316;5.372;2022-09-09T05:14:36;6.03;;;2.08;;
73276;SDS011;61501;43.316;5.372;2022-09-09T05:17:03;12.00;;;2.30;;
73276;SDS011;61501;43.316;5.372;2022-09-09T05:19:29;6.45;;;1.83;;
73276;SDS011;61501;43.316;5.372;2022-09-09T05:21:56;8.65;;;1.80;;
73276;SDS011;61501;43.316;5.372;2022-09-09T05:24:22;5.53;;;1.65;;
73276;SDS011;61501;43.316;5.372;2022-09-09T05:26:48;9.90;;;1.92;;
73276;SDS011;61501;43.316;5.372;2022-09-09T05:29:14;12.85;;;3.05;;
73276;SDS011;61501;43.316;5.372;2022-09-09T05:31:42;13.82;;;3.30;;
73276;SDS011;61501;43.316;5.372;2022-09-09T05:34:08;7.50;;;2.00;;
73276;SDS011;61501;43.316;5.372;2022-09-09T05:36:34;8.25;;;2.35;;
73276;SDS011;61501;43.316;5.372;2022-09-09T05:39:00;6.53;;;1.73;;
73276;SDS011;61501;43.316;5.372;2022-09-09T05:41:26;6.38;;;1.90;;
73276;SDS011;61501;43.316;5.372;2022-09-09T05:43:53;7.15;;;2.08;;
73276;SDS011;61501;43.316;5.372;2022-09-09T05:46:20;9.98;;;2.08;;
73276;SDS011;61501;43.316;5.372;2022-09-09T05:48:47;6.15;;;1.95;;
73276;SDS011;61501;43.316;5.372;2022-09-09T05:51:14;5.03;;;1.80;;
73276;SDS011;61501;43.316;5.372;2022-09-09T05:53:41;3.80;;;1.30;;
73276;SDS011;61501;43.316;5.372;2022-09-09T05:56:09;5.47;;;1.55;;
73276;SDS011;61501;43.316;5.372;2022-09-09T05:58:42;5.35;;;1.48;;
73276;SDS011;61501;43.316;5.372;2022-09-09T06:01:12;6.25;;;1.73;;
73276;SDS011;61501;43.316;5.372;2022-09-09T06:03:39;6.05;;;1.55;;
73276;SDS011;61501;43.316;5.372;2022-09-09T06:06:10;3.45;;;1.35;;
73276;SDS011;61501;43.316;5.372;2022-09-09T06:08:38;4.75;;;1.58;;
73276;SDS011;61501;43.316;5.372;2022-09-09T06:11:05;5.43;;;2.13;;
73276;SDS011;61501;43.316;5.372;2022-09-09T06:13:32;9.77;;;2.25;;
73276;SDS011;61501;43.316;5.372;2022-09-09T06:15:58;4.88;;;1.42;;
73276;SDS011;61501;43.316;5.372;2022-09-09T06:18:27;7.10;;;1.45;;
73276;SDS011;61501;43.316;5.372;2022-09-09T06:20:58;4.22;;;1.70;;
73276;SDS011;61501;43.316;5.372;2022-09-09T06:23:25;6.43;;;1.70;;
73276;SDS011;61501;43.316;5.372;2022-09-09T06:25:52;5.15;;;1.60;;
73276;SDS011;61501;43.316;5.372;2022-09-09T06:28:25;4.45;;;1.80;;
73276;SDS011;61501;43.316;5.372;2022-09-09T06:31:02;8.25;;;1.65;;
73276;SDS011;61501;43.316;5.372;2022-09-09T06:33:35;7.57;;;1.65;;
73276;SDS011;61501;43.316;5.372;2022-09-09T06:36:04;6.00;;;1.83;;
73276;SDS011;61501;43.316;5.372;2022-09-09T06:38:30;7.68;;;2.00;;
73276;SDS011;61501;43.316;5.372;2022-09-09T06:40:57;4.05;;;2.00;;
73276;SDS011;61501;43.316;5.372;2022-09-09T06:43:27;7.82;;;1.88;;
73276;SDS011;61501;43.316;5.372;2022-09-09T06:46:00;5.50;;;2.05;;
73276;SDS011;61501;43.316;5.372;2022-09-09T06:48:27;6.10;;;1.98;;
73276;SDS011;61501;43.316;5.372;2022-09-09T06:51:03;6.22;;;2.13;;
73276;SDS011;61501;43.316;5.372;2022-09-09T06:53:30;6.35;;;2.40;;
73276;SDS011;61501;43.316;5.372;2022-09-09T06:55:58;6.40;;;1.83;;
73276;SDS011;61501;43.316;5.372;2022-09-09T06:58:25;6.82;;;1.63;;
73276;SDS011;61501;43.316;5.372;2022-09-09T07:00:51;7.55;;;2.30;;
73276;SDS011;61501;43.316;5.372;2022-09-09T07:03:21;6.57;;;1.80;;
73276;SDS011;61501;43.316;5.372;2022-09-09T07:05:56;4.95;;;1.88;;
73276;SDS011;61501;43.316;5.372;2022-09-09T07:08:22;6.45;;;2.33;;
73276;SDS011;61501;43.316;5.372;2022-09-09T07:10:49;7.32;;;1.95;;
73276;SDS011;61501;43.316;5.372;2022-09-09T07:13:19;8.27;;;1.92;;
73276;SDS011;61501;43.316;5.372;2022-09-09T07:15:46;5.15;;;1.90;;
73276;SDS011;61501;43.316;5.372;2022-09-09T07:18:12;5.75;;;1.90;;
73276;SDS011;61501;43.316;5.372;2022-09-09T07:20:38;10.38;;;2.00;;
73276;SDS011;61501;43.316;5.372;2022-09-09T07:23:04;4.63;;;1.45;;
73276;SDS011;61501;43.316;5.372;2022-09-09T07:25:30;5.95;;;1.50;;
73276;SDS011;61501;43.316;5.372;2022-09-09T07:27:56;5.18;;;1.52;;
73276;SDS011;61501;43.316;5.372;2022-09-09T07:30:22;4.72;;;1.48;;
73276;SDS011;61501;43.316;5.372;2022-09-09T07:32:50;5.07;;;1.83;;
73276;SDS011;61501;43.316;5.372;2022-09-09T07:35:16;7.97;;;1.70;;
73276;SDS011;61501;43.316;5.372;2022-09-09T07:37:42;3.50;;;1.42;;
73276;SDS011;61501;43.316;5.372;2022-09-09T07:40:08;3.88;;;2.22;;
73276;SDS011;61501;43.316;5.372;2022-09-09T07:42:35;6.00;;;1.55;;
73276;SDS011;61501;43.316;5.372;2022-09-09T07:45:02;5.28;;;1.65;;
73276;SDS011;61501;43.316;5.372;2022-09-09T07:47:28;3.67;;;1.40;;
73276;SDS011;61501;43.316;5.372;2022-09-09T07:49:55;4.00;;;2.03;;
73276;SDS011;61501;43.316;5.372;2022-09-09T07:52:21;2.97;;;1.50;;
73276;SDS011;61501;43.316;5.372;2022-09-09T07:54:47;5.28;;;1.45;;
73276;SDS011;61501;43.316;5.372;2022-09-09T07:57:13;5.18;;;1.40;;
73276;SDS011;61501;43.316;5.372;2022-09-09T07:59:40;4.57;;;1.00;;
73276;SDS011;61501;43.316;5.372;2022-09-09T08:02:06;10.30;;;1.70;;
73276;SDS011;61501;43.316;5.372;2022-09-09T08:04:32;5.38;;;1.33;;
73276;SDS011;61501;43.316;5.372;2022-09-09T08:06:59;4.65;;;1.40;;
73276;SDS011;61501;43.316;5.372;2022-09-09T08:09:26;3.97;;;1.20;;
73276;SDS011;61501;43.316;5.372;2022-09-09T08:11:57;2.75;;;1.20;;
73276;SDS011;61501;43.316;5.372;2022-09-09T08:14:23;3.45;;;1.02;;
73276;SDS011;61501;43.316;5.372;2022-09-09T08:16:50;3.78;;;1.27;;
73276;SDS011;61501;43.316;5.372;2022-09-09T08:19:18;5.53;;;1.42;;
73276;SDS011;61501;43.316;5.372;2022-09-09T08:21:44;4.35;;;1.58;;
73276;SDS011;61501;43.316;5.372;2022-09-09T08:24:10;4.95;;;1.75;;
73276;SDS011;61501;43.316;5.372;2022-09-09T08:26:37;5.22;;;1.20;;
73276;SDS011;61501;43.316;5.372;2022-09-09T08:29:05;3.47;;;1.10;;
73276;SDS011;61501;43.316;5.372;2022-09-09T08:31:35;5.53;;;1.20;;
73276;SDS011;61501;43.316;5.372;2022-09-09T08:34:02;2.97;;;1.10;;
73276;SDS011;61501;43.316;5.372;2022-09-09T08:36:30;3.72;;;1.30;;
73276;SDS011;61501;43.316;5.372;2022-09-09T08:38:58;5.10;;;1.40;;
73276;SDS011;61501;43.316;5.372;2022-09-09T08:49:14;6.95;;;1.60;;
73276;SDS011;61501;43.316;5.372;2022-09-09T08:51:42;4.72;;;1.60;;
73276;SDS011;61501;43.316;5.372;2022-09-09T08:54:08;3.90;;;1.40;;
73276;SDS011;61501;43.316;5.372;2022-09-09T08:56:35;4.55;;;1.58;;
73276;SDS011;61501;43.316;5.372;2022-09-09T08:59:01;2.10;;;1.38;;
73276;SDS011;61501;43.316;5.372;2022-09-09T09:12:16;5.28;;;1.67;;
73276;SDS011;61501;43.316;5.372;2022-09-09T09:14:43;4.47;;;1.40;;
73276;SDS011;61501;43.316;5.372;2022-09-09T09:17:11;5.43;;;1.60;;
73276;SDS011;61501;43.316;5.372;2022-09-09T09:19:38;4.57;;;1.50;;
73276;SDS011;61501;43.316;5.372;2022-09-09T09:27:21;3.70;;;1.08;;
73276;SDS011;61501;43.316;5.372;2022-09-09T09:29:53;4.60;;;1.20;;
73276;SDS011;61501;43.316;5.372;2022-09-09T09:32:21;3.33;;;1.50;;
73276;SDS011;61501;43.316;5.372;2022-09-09T09:34:50;5.38;;;1.40;;
73276;SDS011;61501;43.316;5.372;2022-09-09T09:37:17;5.72;;;1.55;;
73276;SDS011;61501;43.316;5.372;2022-09-09T09:39:45;5.90;;;1.45;;
73276;SDS011;61501;43.316;5.372;2022-09-09T09:42:12;3.70;;;1.77;;
73276;SDS011;61501;43.316;5.372;2022-09-09T09:44:39;4.88;;;1.30;;
73276;SDS011;61501;43.316;5.372;2022-09-09T09:49:33;3.45;;;1.10;;
73276;SDS011;61501;43.316;5.372;2022-09-09T09:52:02;3.80;;;1.08;;
73276;SDS011;61501;43.316;5.372;2022-09-09T09:54:38;6.28;;;1.35;;
73276;SDS011;61501;43.316;5.372;2022-09-09T09:57:11;8.43;;;1.90;;
73276;SDS011;61501;43.316;5.372;2022-09-09T09:59:37;5.30;;;1.20;;
73276;SDS011;61501;43.316;5.372;2022-09-09T10:04:36;3.75;;;1.38;;
73276;SDS011;61501;43.316;5.372;2022-09-09T10:07:15;3.72;;;1.15;;
73276;SDS011;61501;43.316;5.372;2022-09-09T10:09:42;3.25;;;1.15;;
73276;SDS011;61501;43.316;5.372;2022-09-09T10:19:45;2.90;;;0.98;;
73276;SDS011;61501;43.316;5.372;2022-09-09T10:22:24;1.25;;;0.95;;
73276;SDS011;61501;43.316;5.372;2022-09-09T10:27:38;2.15;;;1.02;;
73276;SDS011;61501;43.316;5.372;2022-09-09T10:30:18;1.90;;;1.00;;
73276;SDS011;61501;43.316;5.372;2022-09-09T10:37:52;1.40;;;0.77;;
73276;SDS011;61501;43.316;5.372;2022-09-09T10:42:51;1.10;;;0.70;;
73276;SDS011;61501;43.316;5.372;2022-09-09T10:45:22;3.92;;;1.13;;
73276;SDS011;61501;43.316;5.372;2022-09-09T10:47:56;3.60;;;1.38;;
73276;SDS011;61501;43.316;5.372;2022-09-09T10:55:27;1.83;;;1.02;;
73276;SDS011;61501;43.316;5.372;2022-09-09T10:57:54;5.20;;;1.15;;
73276;SDS011;61501;43.316;5.372;2022-09-09T11:00:41;2.50;;;1.10;;
73276;SDS011;61501;43.316;5.372;2022-09-09T11:03:09;1.58;;;1.10;;
73276;SDS011;61501;43.316;5.372;2022-09-09T11:06:00;4.05;;;1.55;;
73276;SDS011;61501;43.316;5.372;2022-09-09T11:08:28;5.53;;;1.40;;
73276;SDS011;61501;43.316;5.372;2022-09-09T11:16:00;3.72;;;1.35;;
73276;SDS011;61501;43.316;5.372;2022-09-09T11:18:27;2.05;;;1.30;;
73276;SDS011;61501;43.316;5.372;2022-09-09T11:20:56;6.20;;;2.00;;
73276;SDS011;61501;43.316;5.372;2022-09-09T11:23:26;2.10;;;1.70;;
73276;SDS011;61501;43.316;5.372;2022-09-09T11:25:57;1.77;;;1.10;;
73276;SDS011;61501;43.316;5.372;2022-09-09T11:28:32;1.42;;;0.88;;
73276;SDS011;61501;43.316;5.372;2022-09-09T11:38:53;4.57;;;1.55;;
73276;SDS011;61501;43.316;5.372;2022-09-09T11:41:22;2.05;;;1.27;;
73276;SDS011;61501;43.316;5.372;2022-09-09T11:43:49;2.47;;;1.40;;
73276;SDS011;61501;43.316;5.372;2022-09-09T11:46:17;1.85;;;1.23;;
73276;SDS011;61501;43.316;5.372;2022-09-09T11:48:45;2.40;;;1.45;;
73276;SDS011;61501;43.316;5.372;2022-09-09T11:53:54;4.25;;;1.40;;
73276;SDS011;61501;43.316;5.372;2022-09-09T12:01:38;3.05;;;1.25;;
73276;SDS011;61501;43.316;5.372;2022-09-09T12:06:33;1.77;;;0.73;;
73276;SDS011;61501;43.316;5.372;2022-09-09T12:09:12;1.45;;;0.90;;
73276;SDS011;61501;43.316;5.372;2022-09-09T12:11:41;1.42;;;0.60;;
73276;SDS011;61501;43.316;5.372;2022-09-09T12:14:20;2.08;;;1.10;;
73276;SDS011;61501;43.316;5.372;2022-09-09T12:16:47;4.63;;;0.95;;
73276;SDS011;61501;43.316;5.372;2022-09-09T12:24:31;1.10;;;0.65;;
73276;SDS011;61501;43.316;5.372;2022-09-09T12:27:07;0.90;;;0.75;;
73276;SDS011;61501;43.316;5.372;2022-09-09T12:32:11;1.92;;;0.90;;
73276;SDS011;61501;43.316;5.372;2022-09-09T12:37:15;4.18;;;1.17;;
73276;SDS011;61501;43.316;5.372;2022-09-09T12:45:03;2.85;;;0.90;;
73276;SDS011;61501;43.316;5.372;2022-09-09T12:47:51;0.90;;;0.85;;
73276;SDS011;61501;43.316;5.372;2022-09-09T12:50:22;1.80;;;1.33;;
73276;SDS011;61501;43.316;5.372;2022-09-09T12:52:50;3.85;;;1.20;;
73276;SDS011;61501;43.316;5.372;2022-09-09T12:55:19;3.17;;;1.00;;
73276;SDS011;61501;43.316;5.372;2022-09-09T12:57:46;1.50;;;1.10;;
73276;SDS011;61501;43.316;5.372;2022-09-09T13:00:16;2.92;;;1.20;;
73276;SDS011;61501;43.316;5.372;2022-09-09T13:03:01;1.98;;;0.90;;
73276;SDS011;61501;43.316;5.372;2022-09-09T13:05:33;2.65;;;1.00;;
73276;SDS011;61501;43.316;5.372;2022-09-09T13:08:04;2.33;;;1.15;;
73276;SDS011;61501;43.316;5.372;2022-09-09T13:10:34;1.45;;;1.10;;
73276;SDS011;61501;43.316;5.372;2022-09-09T13:13:01;2.03;;;1.10;;
73276;SDS011;61501;43.316;5.372;2022-09-09T13:15:28;2.42;;;1.52;;
73276;SDS011;61501;43.316;5.372;2022-09-09T13:17:58;4.10;;;0.98;;
73276;SDS011;61501;43.316;5.372;2022-09-09T13:20:26;3.60;;;0.90;;
73276;SDS011;61501;43.316;5.372;2022-09-09T13:22:53;3.72;;;1.10;;
73276;SDS011;61501;43.316;5.372;2022-09-09T13:25:20;2.85;;;0.90;;
73276;SDS011;61501;43.316;5.372;2022-09-09T13:27:55;3.70;;;1.00;;
73276;SDS011;61501;43.316;5.372;2022-09-09T13:32:48;2.78;;;1.20;;
73276;SDS011;61501;43.316;5.372;2022-09-09T13:35:26;6.43;;;1.70;;
73276;SDS011;61501;43.316;5.372;2022-09-09T13:37:52;3.33;;;1.42;;
73276;SDS011;61501;43.316;5.372;2022-09-09T13:40:19;1.75;;;1.13;;
73276;SDS011;61501;43.316;5.372;2022-09-09T13:42:46;2.63;;;1.10;;
73276;SDS011;61501;43.316;5.372;2022-09-09T13:45:16;1.90;;;1.30;;
73276;SDS011;61501;43.316;5.372;2022-09-09T13:47:45;1.83;;;1.13;;
73276;SDS011;61501;43.316;5.372;2022-09-09T13:52:48;1.98;;;0.90;;
73276;SDS011;61501;43.316;5.372;2022-09-09T13:55:16;2.60;;;1.33;;
73276;SDS011;61501;43.316;5.372;2022-09-09T14:00:17;2.13;;;1.33;;
73276;SDS011;61501;43.316;5.372;2022-09-09T14:02:44;2.45;;;1.20;;
73276;SDS011;61501;43.316;5.372;2022-09-09T14:05:10;1.42;;;1.02;;
73276;SDS011;61501;43.316;5.372;2022-09-09T14:07:36;2.42;;;1.27;;
73276;SDS011;61501;43.316;5.372;2022-09-09T14:10:03;1.90;;;0.90;;
73276;SDS011;61501;43.316;5.372;2022-09-09T14:12:29;1.90;;;0.90;;
73276;SDS011;61501;43.316;5.372;2022-09-09T14:14:55;1.98;;;1.13;;
73276;SDS011;61501;43.316;5.372;2022-09-09T14:17:22;3.05;;;1.23;;
73276;SDS011;61501;43.316;5.372;2022-09-09T14:19:50;2.72;;;1.60;;
73276;SDS011;61501;43.316;5.372;2022-09-09T14:22:16;4.50;;;1.23;;
73276;SDS011;61501;43.316;5.372;2022-09-09T14:24:42;3.03;;;0.93;;
73276;SDS011;61501;43.316;5.372;2022-09-09T14:27:08;5.07;;;2.83;;
73276;SDS011;61501;43.316;5.372;2022-09-09T14:29:34;2.75;;;1.50;;
73276;SDS011;61501;43.316;5.372;2022-09-09T14:32:00;3.15;;;1.00;;
73276;SDS011;61501;43.316;5.372;2022-09-09T14:34:26;5.18;;;1.10;;
73276;SDS011;61501;43.316;5.372;2022-09-09T14:36:52;3.40;;;1.08;;
73276;SDS011;61501;43.316;5.372;2022-09-09T14:39:18;2.03;;;1.00;;
73276;SDS011;61501;43.316;5.372;2022-09-09T14:41:44;6.53;;;1.67;;
73276;SDS011;61501;43.316;5.372;2022-09-09T14:44:10;2.83;;;1.10;;
73276;SDS011;61501;43.316;5.372;2022-09-09T14:46:36;2.83;;;1.10;;
73276;SDS011;61501;43.316;5.372;2022-09-09T14:49:02;2.03;;;1.08;;
73276;SDS011;61501;43.316;5.372;2022-09-09T14:51:29;3.80;;;1.67;;
73276;SDS011;61501;43.316;5.372;2022-09-09T14:53:58;1.80;;;1.08;;
73276;SDS011;61501;43.316;5.372;2022-09-09T14:56:26;1.63;;;0.93;;
73276;SDS011;61501;43.316;5.372;2022-09-09T14:58:53;1.85;;;1.10;;
73276;SDS011;61501;43.316;5.372;2022-09-09T15:01:20;1.65;;;1.00;;
73276;SDS011;61501;43.316;5.372;2022-09-09T15:03:51;1.40;;;0.90;;
73276;SDS011;61501;43.316;5.372;2022-09-09T15:06:17;3.05;;;1.10;;
73276;SDS011;61501;43.316;5.372;2022-09-09T15:08:44;1.70;;;1.00;;
73276;SDS011;61501;43.316;5.372;2022-09-09T15:11:11;2.47;;;1.17;;
73276;SDS011;61501;43.316;5.372;2022-09-09T15:13:38;2.78;;;1.20;;
73276;SDS011;61501;43.316;5.372;2022-09-09T15:16:09;3.13;;;1.15;;
73276;SDS011;61501;43.316;5.372;2022-09-09T15:18:35;1.45;;;1.00;;
73276;SDS011;61501;43.316;5.372;2022-09-09T15:21:04;2.13;;;1.23;;
73276;SDS011;61501;43.316;5.372;2022-09-09T15:23:33;4.72;;;1.02;;
73276;SDS011;61501;43.316;5.372;2022-09-09T15:26:00;2.45;;;1.10;;
73276;SDS011;61501;43.316;5.372;2022-09-09T15:28:26;4.55;;;1.30;;
73276;SDS011;61501;43.316;5.372;2022-09-09T15:30:53;2.38;;;1.15;;
73276;SDS011;61501;43.316;5.372;2022-09-09T15:33:19;2.60;;;1.15;;
73276;SDS011;61501;43.316;5.372;2022-09-09T15:35:49;1.38;;;1.05;;
73276;SDS011;61501;43.316;5.372;2022-09-09T15:38:16;1.50;;;1.00;;
73276;SDS011;61501;43.316;5.372;2022-09-09T15:40:44;1.48;;;1.20;;
73276;SDS011;61501;43.316;5.372;2022-09-09T15:43:11;2.40;;;1.38;;
73276;SDS011;61501;43.316;5.372;2022-09-09T15:45:39;2.55;;;1.10;;
73276;SDS011;61501;43.316;5.372;2022-09-09T15:48:05;1.65;;;1.10;;
73276;SDS011;61501;43.316;5.372;2022-09-09T15:50:31;2.55;;;1.20;;
73276;SDS011;61501;43.316;5.372;2022-09-09T15:52:57;2.42;;;1.00;;
73276;SDS011;61501;43.316;5.372;2022-09-09T15:55:23;3.35;;;1.33;;
73276;SDS011;61501;43.316;5.372;2022-09-09T15:57:50;2.35;;;1.25;;
73276;SDS011;61501;43.316;5.372;2022-09-09T16:00:18;3.90;;;1.33;;
73276;SDS011;61501;43.316;5.372;2022-09-09T16:02:44;4.05;;;1.30;;
73276;SDS011;61501;43.316;5.372;2022-09-09T16:05:10;1.73;;;1.00;;
73276;SDS011;61501;43.316;5.372;2022-09-09T16:07:36;5.82;;;1.08;;
73276;SDS011;61501;43.316;5.372;2022-09-09T16:10:02;2.17;;;1.38;;
73276;SDS011;61501;43.316;5.372;2022-09-09T16:12:28;2.58;;;1.42;;
73276;SDS011;61501;43.316;5.372;2022-09-09T16:14:54;2.25;;;1.40;;
73276;SDS011;61501;43.316;5.372;2022-09-09T16:17:20;3.40;;;1.30;;
73276;SDS011;61501;43.316;5.372;2022-09-09T16:19:47;2.15;;;1.15;;
73276;SDS011;61501;43.316;5.372;2022-09-09T16:22:13;3.55;;;1.55;;
73276;SDS011;61501;43.316;5.372;2022-09-09T16:24:40;5.38;;;2.17;;
73276;SDS011;61501;43.316;5.372;2022-09-09T16:27:06;3.58;;;1.33;;
73276;SDS011;61501;43.316;5.372;2022-09-09T16:29:32;5.78;;;2.53;;
73276;SDS011;61501;43.316;5.372;2022-09-09T16:31:58;8.10;;;6.22;;
73276;SDS011;61501;43.316;5.372;2022-09-09T16:34:25;8.48;;;6.10;;
73276;SDS011;61501;43.316;5.372;2022-09-09T16:36:51;7.38;;;6.68;;
73276;SDS011;61501;43.316;5.372;2022-09-09T16:39:18;7.68;;;6.97;;
73276;SDS011;61501;43.316;5.372;2022-09-09T16:41:44;9.43;;;8.52;;
73276;SDS011;61501;43.316;5.372;2022-09-09T16:44:12;7.32;;;5.28;;
73276;SDS011;61501;43.316;5.372;2022-09-09T16:46:40;11.90;;;10.43;;
73276;SDS011;61501;43.316;5.372;2022-09-09T16:49:07;16.25;;;14.65;;
73276;SDS011;61501;43.316;5.372;2022-09-09T16:51:35;10.35;;;8.18;;
73276;SDS011;61501;43.316;5.372;2022-09-09T16:54:02;21.02;;;18.85;;
73276;SDS011;61501;43.316;5.372;2022-09-09T16:56:29;7.95;;;6.03;;
73276;SDS011;61501;43.316;5.372;2022-09-09T16:58:57;6.22;;;4.15;;
73276;SDS011;61501;43.316;5.372;2022-09-09T17:01:24;5.80;;;2.42;;
73276;SDS011;61501;43.316;5.372;2022-09-09T17:03:56;3.70;;;1.80;;
73276;SDS011;61501;43.316;5.372;2022-09-09T17:06:22;4.00;;;3.03;;